Airfield :
LOGIN :

Register | Disclaimer

   EN    FR    IT 

 










Legend :    VFR   Marginal VFR   IFR   Intensive IFR   Very Intensive IFR
Visi :
Ceiling :
>= 8 km
>= 3000ft
5 to 8 km
1000 to 3000 ft
1500m to 5 km
500 to 1000 ft
800 to 1500m
200 to 500 ft
< 800m
< 200 ft
Symbols :   Thunderstorms  Fog  Heavy snow  Heavy precipitations  Wind > 20 kt
SIGMETs :     Misc.  Thunderstorms  Icing  Turbulence  Mountain Waves  Volcanic Ashes







- Airport Elevation : 681 ft
- IATA code : LBA
- Download approach charts


EGNM - Leeds Bradford

CURRENT METAR :
  • 141420Z 22008G18KT 190V260 9999 -SHRA BKN015 03/02 Q0982

EXPIRED METARs :
  • 141350Z 23009KT 190V270 9999 -SHRA BKN015 04/02 Q0982
  • 141320Z 23012KT 180V270 9999 -SHRA FEW012 BKN018 04/01 Q0982
  • 141250Z 23013KT 190V270 9999 -SHRA FEW012 SCT017 04/01 Q0982
  • 141220Z 23010G20KT 190V250 9999 -SHRA FEW012 SCT017 04/02 Q0983
  • 141150Z 24011G21KT 200V290 9999 4000W -SHRA FEW012 SCT017 03/02 Q0983

TAF TAF EGNM
Valid from the 14 at 12:00 until the 15 at 12:00 UTC


141055Z 1412/1512 25012KT 9999 SCT020
TEMPO 1412/1512 3000 SHRASN BKN008
BECMG 1418/1421 VRB05KT
PROB40
TEMPO 1421/1512 0800 SHSN BKN001
BECMG 1503/1506 32010KT
TEMPO 1509/1512 33015G25KT
ATIS : +44 113 250 9696 (x2489)
No reported NOTAMs for that airfield.
2 SIGMETs reported for the London FIR (EGTT) :
 
Severe turbulence
EGTT SIGMET 04 VALID 141500/141900 EGRR
EGTT LONDON FIR SEV TURB FCST SW OF LINE N5000 W00119 - N5219 W00533 SFC/FL060 STNR WKN=
Severe turbulence
EGTT SIGMET 03 VALID 141100/141500 EGRR
EGTT LONDON FIR SEV TURB FCST SW OF LINE N5000 W00019 - N5153 W00620 SFC/FL060 STNR NC=



MET'MAP, your aeronautical weather chart ! - Copyright ORBIFLY December 2007 - Disclaimer

ORBIFLY MET'MAP TEAM :

Programming & Development : Alexandra Zaïnal
Concept & Development : Baudouin d'Aumeries
Co-Development & Prog : Marc-Olivier Méhu
Technical & hardware support : Manuel Goepfert

Contact : metmap@orbifly.com




SOURCES & CREDITS :

   NOAA